createdAt,value
2023-01-30T00:05:12.510Z,91.33
2023-01-30T00:10:05.046Z,91.18
2023-01-30T00:14:56.742Z,91.23
2023-01-30T00:19:48.398Z,91.06
2023-01-30T00:24:40.263Z,90.87
2023-01-30T00:29:32.012Z,91.12
2023-01-30T00:34:23.748Z,91.13
2023-01-30T00:39:15.429Z,91.27
2023-01-30T00:44:27.539Z,91.26
2023-01-30T00:49:20.041Z,91.40
2023-01-30T00:54:11.794Z,91.12
2023-01-30T00:59:03.606Z,91.33
2023-01-30T01:03:55.322Z,90.85
2023-01-30T01:08:46.995Z,91.15
2023-01-30T01:13:38.683Z,91.09
2023-01-30T01:18:30.545Z,91.56
2023-01-30T01:23:22.245Z,91.40
2023-01-30T01:28:15.753Z,91.81
2023-01-30T01:33:07.459Z,92.00
2023-01-30T01:37:59.154Z,91.66
2023-01-30T01:42:51.539Z,92.17
2023-01-30T01:48:09.696Z,92.52
2023-01-30T01:53:02.178Z,92.68
2023-01-30T01:58:16.442Z,92.33
2023-01-30T02:03:15.257Z,92.39
2023-01-30T02:08:14.503Z,91.51
2023-01-30T02:13:06.176Z,91.21
2023-01-30T02:17:57.883Z,90.79
2023-01-30T02:23:12.999Z,90.72
2023-01-30T02:28:55.586Z,90.71
2023-01-30T02:34:22.464Z,90.68
2023-01-30T02:40:08.441Z,90.71
2023-01-30T02:45:13.667Z,90.70
2023-01-30T02:50:28.065Z,90.80
2023-01-30T02:55:28.439Z,91.34
2023-01-30T03:00:38.774Z,91.51
2023-01-30T03:05:54.202Z,91.69
2023-01-30T03:11:08.572Z,91.53
2023-01-30T03:16:10.617Z,91.33
2023-01-30T03:21:08.110Z,91.25
2023-01-30T03:26:04.586Z,91.52
2023-01-30T03:30:56.346Z,90.96
2023-01-30T03:35:49.607Z,90.94
2023-01-30T03:40:41.408Z,89.62
2023-01-30T03:45:33.349Z,89.07
2023-01-30T03:50:25.013Z,89.28
2023-01-30T03:55:18.144Z,89.04
2023-01-30T04:00:11.350Z,88.97
2023-01-30T04:05:03.078Z,89.69
2023-01-30T04:09:54.735Z,89.94
2023-01-30T04:14:46.442Z,89.73
2023-01-30T04:19:38.102Z,90.27
2023-01-30T04:24:29.819Z,90.27
2023-01-30T04:29:21.471Z,91.31
2023-01-30T04:34:13.220Z,91.58
2023-01-30T04:39:05.014Z,91.55
2023-01-30T04:43:56.705Z,92.01
2023-01-30T04:48:48.395Z,92.63
2023-01-30T04:53:40.091Z,93.10
2023-01-30T04:58:31.766Z,92.61
2023-01-30T05:03:24.955Z,93.71
2023-01-30T05:23:37.934Z,92.51
2023-01-30T05:28:37.311Z,92.94
2023-01-30T05:54:04.898Z,93.49
2023-01-30T05:59:03.348Z,92.30
2023-01-30T06:29:28.060Z,91.25
2023-01-30T06:34:21.833Z,91.23
2023-01-30T06:49:26.522Z,89.65
2023-01-30T07:19:52.562Z,92.58
2023-01-30T09:12:11.724Z,84.40
2023-01-30T10:00:11.827Z,79.79
2023-01-30T11:26:47.083Z,71.06
2023-01-30T13:55:23.812Z,70.26
2023-01-30T15:22:20.677Z,74.73
2023-01-30T18:05:35.748Z,100.00
